createdAt,value
2018-09-02T00:00:31.873Z,0
2018-09-02T00:01:40.517Z,0
2018-09-02T00:02:49.155Z,0
2018-09-02T00:03:57.795Z,0
2018-09-02T00:05:06.712Z,0
2018-09-02T00:06:15.351Z,0
2018-09-02T00:07:23.998Z,0
2018-09-02T00:08:32.634Z,0
2018-09-02T00:09:41.590Z,0
2018-09-02T00:10:50.186Z,0
2018-09-02T00:11:58.839Z,0
2018-09-02T00:13:07.472Z,0
2018-09-02T00:14:16.123Z,0
2018-09-02T00:15:24.764Z,0
2018-09-02T00:16:33.412Z,0
2018-09-02T00:17:42.043Z,0
2018-09-02T00:18:50.691Z,0
2018-09-02T00:19:59.338Z,0
2018-09-02T00:21:08.515Z,0
2018-09-02T00:22:17.693Z,0
2018-09-02T00:23:26.326Z,0
2018-09-02T00:24:34.976Z,0
2018-09-02T00:25:44.216Z,0
2018-09-02T00:26:52.867Z,0
2018-09-02T00:28:01.501Z,0
2018-09-02T00:29:10.150Z,0
2018-09-02T00:30:18.804Z,0
2018-09-02T00:31:27.444Z,0
2018-09-02T00:32:36.078Z,0
2018-09-02T00:33:44.792Z,0
2018-09-02T00:34:53.365Z,0
2018-09-02T00:36:02.016Z,0
2018-09-02T00:37:10.919Z,0
2018-09-02T00:38:19.819Z,0
2018-09-02T00:39:28.461Z,0
2018-09-02T00:40:37.106Z,0
2018-09-02T00:41:45.749Z,0
2018-09-02T00:42:54.391Z,0
2018-09-02T00:44:03.302Z,0
2018-09-02T00:45:12.207Z,0
2018-09-02T00:46:20.857Z,0
2018-09-02T00:47:29.760Z,0
2018-09-02T00:48:38.663Z,0
2018-09-02T00:49:47.303Z,0
2018-09-02T00:50:56.219Z,0
2018-09-02T00:52:04.860Z,0
2018-09-02T00:53:13.503Z,0
2018-09-02T00:54:22.147Z,0
2018-09-02T00:55:30.787Z,0
2018-09-02T00:56:39.439Z,0
2018-09-02T00:57:48.084Z,0
2018-09-02T00:58:56.732Z,0
2018-09-02T01:00:05.370Z,0
2018-09-02T01:01:14.012Z,0
2018-09-02T01:02:22.918Z,0
2018-09-02T01:03:31.835Z,0
2018-09-02T01:04:40.472Z,0
2018-09-02T01:05:49.114Z,0
2018-09-02T01:06:57.755Z,0
2018-09-02T01:08:06.401Z,0
2018-09-02T01:09:15.036Z,0
2018-09-02T01:10:23.683Z,0
2018-09-02T01:11:32.322Z,0
2018-09-02T01:12:41.280Z,0
2018-09-02T01:13:49.918Z,0
2018-09-02T01:14:58.560Z,0
2018-09-02T01:16:07.210Z,0
2018-09-02T01:17:15.852Z,0
2018-09-02T01:18:24.497Z,0
2018-09-02T01:19:33.140Z,0
2018-09-02T01:20:41.782Z,0
2018-09-02T01:21:50.426Z,0
2018-09-02T01:22:59.125Z,0
2018-09-02T01:24:07.717Z,0
2018-09-02T01:25:16.363Z,0
2018-09-02T01:26:24.996Z,0
2018-09-02T01:27:33.642Z,0
2018-09-02T01:28:42.281Z,0
2018-09-02T01:29:50.924Z,0
2018-09-02T01:30:59.560Z,0
2018-09-02T01:32:08.206Z,0
2018-09-02T01:33:16.855Z,0
2018-09-02T01:34:25.499Z,0
2018-09-02T01:35:34.142Z,0
2018-09-02T01:36:43.312Z,0
2018-09-02T01:37:51.957Z,0
2018-09-02T01:39:00.598Z,0
2018-09-02T01:40:09.239Z,0
2018-09-02T01:41:17.882Z,0
2018-09-02T01:42:26.524Z,0
2018-09-02T01:43:35.167Z,0
2018-09-02T01:44:43.806Z,0
2018-09-02T01:45:52.459Z,0
2018-09-02T01:47:01.356Z,0
2018-09-02T01:48:10.000Z,0
2018-09-02T01:49:18.637Z,0
2018-09-02T01:50:27.284Z,0
2018-09-02T01:51:35.927Z,0
2018-09-02T01:52:44.844Z,0
2018-09-02T01:53:53.480Z,0
2018-09-02T01:55:02.118Z,0
2018-09-02T01:56:11.296Z,0
2018-09-02T01:57:20.203Z,0
2018-09-02T01:58:28.847Z,0
2018-09-02T01:59:37.484Z,0
2018-09-02T02:00:46.125Z,0
2018-09-02T02:01:54.766Z,0
2018-09-02T02:03:03.412Z,0
2018-09-02T02:04:12.048Z,0
2018-09-02T02:05:20.689Z,0
2018-09-02T02:06:29.327Z,0
2018-09-02T02:07:37.977Z,0
2018-09-02T02:08:46.613Z,0
2018-09-02T02:09:55.255Z,0
2018-09-02T02:11:03.896Z,0
2018-09-02T02:12:12.538Z,0
2018-09-02T02:13:21.186Z,0
2018-09-02T02:14:29.827Z,0
2018-09-02T02:15:38.467Z,0
2018-09-02T02:16:47.104Z,0
2018-09-02T02:17:55.752Z,0
2018-09-02T02:19:04.395Z,0
2018-09-02T02:20:13.328Z,0
2018-09-02T02:21:21.972Z,0
2018-09-02T02:22:30.624Z,0
2018-09-02T02:23:39.785Z,0
2018-09-02T02:24:48.426Z,0
2018-09-02T02:25:57.063Z,0
2018-09-02T02:27:05.709Z,0
2018-09-02T02:28:14.356Z,0
2018-09-02T02:29:22.994Z,0
2018-09-02T02:30:31.638Z,0
2018-09-02T02:31:40.275Z,0
2018-09-02T02:32:48.920Z,0
2018-09-02T02:33:58.087Z,0
2018-09-02T02:35:07.000Z,0
2018-09-02T02:36:15.634Z,0
2018-09-02T02:37:24.283Z,0
2018-09-02T02:38:32.924Z,0
2018-09-02T02:39:41.576Z,0
2018-09-02T02:40:50.209Z,0
2018-09-02T02:41:58.851Z,0
2018-09-02T02:43:07.490Z,0
2018-09-02T02:44:16.141Z,0
2018-09-02T02:45:24.791Z,0
2018-09-02T02:46:33.427Z,0
2018-09-02T02:47:42.331Z,0
2018-09-02T02:48:50.969Z,0
2018-09-02T02:49:59.621Z,0
2018-09-02T02:51:08.263Z,0
2018-09-02T02:52:16.911Z,0
2018-09-02T02:53:25.551Z,0
2018-09-02T02:54:34.205Z,0
2018-09-02T02:55:43.108Z,0
2018-09-02T02:56:51.759Z,0
2018-09-02T02:58:00.394Z,0
2018-09-02T02:59:09.042Z,0
2018-09-02T03:00:17.948Z,0
2018-09-02T03:01:26.857Z,0
2018-09-02T03:02:35.488Z,0
2018-09-02T03:03:44.131Z,0
2018-09-02T03:04:52.778Z,0
2018-09-02T03:06:01.421Z,0
2018-09-02T03:07:10.065Z,0
2018-09-02T03:08:18.982Z,0
2018-09-02T03:09:27.627Z,0
2018-09-02T03:10:36.269Z,0
2018-09-02T03:11:44.916Z,0
2018-09-02T03:12:53.552Z,0
2018-09-02T03:14:02.200Z,0
2018-09-02T03:15:10.837Z,0
2018-09-02T03:16:19.483Z,0
2018-09-02T03:17:28.115Z,0
2018-09-02T03:18:36.766Z,0
2018-09-02T03:19:45.409Z,0
2018-09-02T03:20:54.079Z,0
2018-09-02T03:22:02.712Z,0
2018-09-02T03:23:11.623Z,0
2018-09-02T03:24:20.269Z,0
2018-09-02T03:25:28.910Z,0
2018-09-02T03:26:37.565Z,0
2018-09-02T03:27:46.207Z,0
2018-09-02T03:28:55.125Z,0
2018-09-02T03:30:04.012Z,0
2018-09-02T03:31:12.672Z,0
2018-09-02T03:32:21.313Z,0
2018-09-02T03:33:29.963Z,0
2018-09-02T03:34:38.596Z,0
2018-09-02T03:35:47.241Z,0
2018-09-02T03:36:55.887Z,0
2018-09-02T03:38:04.528Z,0
2018-09-02T03:39:13.165Z,0
2018-09-02T03:40:21.832Z,0
2018-09-02T03:41:30.998Z,0
2018-09-02T03:42:39.910Z,0
2018-09-02T03:43:48.554Z,0
2018-09-02T03:44:57.196Z,0
2018-09-02T03:46:05.839Z,0
2018-09-02T03:47:14.484Z,0
2018-09-02T03:48:23.131Z,0
2018-09-02T03:49:32.036Z,0
2018-09-02T03:50:40.679Z,0
2018-09-02T03:51:49.329Z,0
2018-09-02T03:52:57.983Z,0
2018-09-02T03:54:06.624Z,0
2018-09-02T03:55:15.269Z,0
2018-09-02T03:56:23.913Z,0
2018-09-02T03:57:32.824Z,0
2018-09-02T03:58:41.462Z,0
2018-09-02T03:59:50.369Z,0
2018-09-02T04:00:59.270Z,0
2018-09-02T04:02:07.913Z,0
2018-09-02T04:03:16.561Z,0
2018-09-02T04:04:25.209Z,0
2018-09-02T04:05:34.120Z,0
2018-09-02T04:06:43.021Z,0
2018-09-02T04:07:51.939Z,0
2018-09-02T04:09:00.582Z,0
2018-09-02T04:10:09.223Z,0
2018-09-02T04:11:18.201Z,0
2018-09-02T04:12:26.823Z,0
2018-09-02T04:13:35.728Z,0
2018-09-02T04:14:44.371Z,4
2018-09-02T04:15:53.009Z,0
2018-09-02T04:17:01.656Z,4
2018-09-02T04:18:10.561Z,0
2018-09-02T04:19:19.206Z,4
2018-09-02T04:20:27.848Z,4
2018-09-02T04:21:36.487Z,8
2018-09-02T04:22:45.129Z,8
2018-09-02T04:23:53.772Z,12
2018-09-02T04:25:02.418Z,8
2018-09-02T04:26:11.058Z,16
2018-09-02T04:27:19.700Z,16
2018-09-02T04:28:28.614Z,20
2018-09-02T04:29:37.258Z,20
2018-09-02T04:30:45.892Z,28
2018-09-02T04:31:54.537Z,32
2018-09-02T04:33:03.187Z,36
2018-09-02T04:34:11.835Z,40
2018-09-02T04:35:20.749Z,48
2018-09-02T04:36:29.393Z,56
2018-09-02T04:37:38.041Z,60
2018-09-02T04:38:46.684Z,72
2018-09-02T04:39:55.334Z,76
2018-09-02T04:41:04.235Z,88
2018-09-02T04:42:13.148Z,96
2018-09-02T04:43:22.043Z,104
2018-09-02T04:44:30.696Z,108
2018-09-02T04:45:39.600Z,120
2018-09-02T04:46:48.247Z,128
2018-09-02T04:47:57.148Z,136
2018-09-02T04:49:05.804Z,148
2018-09-02T04:50:15.014Z,160
2018-09-02T04:51:23.944Z,176
2018-09-02T04:52:32.579Z,196
2018-09-02T04:53:41.490Z,220
2018-09-02T04:54:50.133Z,244
2018-09-02T04:55:58.777Z,272
2018-09-02T04:57:07.423Z,296
2018-09-02T04:58:16.055Z,320
2018-09-02T04:59:25.233Z,344
2018-09-02T05:00:33.869Z,368
2018-09-02T05:01:42.526Z,388
2018-09-02T05:02:51.422Z,412
2018-09-02T05:04:00.069Z,436
2018-09-02T05:05:08.971Z,456
2018-09-02T05:06:17.621Z,476
2018-09-02T05:07:26.254Z,500
2018-09-02T05:08:34.909Z,520
2018-09-02T05:09:43.550Z,540
2018-09-02T05:10:52.206Z,568
2018-09-02T05:12:00.844Z,592
2018-09-02T05:13:09.483Z,612
2018-09-02T05:14:18.765Z,636
2018-09-02T05:15:27.179Z,660
2018-09-02T05:16:35.834Z,680
2018-09-02T05:17:44.471Z,704
2018-09-02T05:18:53.127Z,728
2018-09-02T05:20:02.033Z,748
2018-09-02T05:21:10.684Z,772
2018-09-02T05:22:19.585Z,788
2018-09-02T05:23:28.226Z,808
2018-09-02T05:24:36.860Z,836
2018-09-02T05:25:45.778Z,868
2018-09-02T05:26:54.681Z,908
2018-09-02T05:28:03.587Z,940
2018-09-02T05:29:12.751Z,976
2018-09-02T05:30:21.395Z,1020
2018-09-02T05:31:30.043Z,1064
2018-09-02T05:32:38.681Z,1100
2018-09-02T05:33:47.866Z,1140
2018-09-02T05:34:56.517Z,1188
2018-09-02T05:36:05.159Z,1240
2018-09-02T05:37:13.805Z,1288
2018-09-02T05:38:22.445Z,1328
2018-09-02T05:39:31.090Z,1364
2018-09-02T05:40:39.727Z,1404
2018-09-02T05:41:48.374Z,1444
2018-09-02T05:42:57.008Z,1460
2018-09-02T05:44:05.758Z,1460
2018-09-02T05:45:14.709Z,1480
2018-09-02T05:46:23.353Z,1512
2018-09-02T05:47:31.987Z,1580
2018-09-02T05:48:40.635Z,1660
2018-09-02T05:49:49.274Z,1732
2018-09-02T05:50:58.180Z,1796
2018-09-02T05:52:07.099Z,1832
2018-09-02T05:53:15.731Z,1860
2018-09-02T05:54:24.384Z,1864
2018-09-02T05:55:33.025Z,1824
2018-09-02T05:56:41.943Z,1768
2018-09-02T05:57:50.590Z,1744
2018-09-02T05:58:59.221Z,1724
2018-09-02T06:00:07.858Z,1696
2018-09-02T06:01:17.044Z,1696
2018-09-02T06:02:25.939Z,1704
2018-09-02T06:03:34.584Z,1684
2018-09-02T06:04:43.493Z,1684
2018-09-02T06:05:52.146Z,1676
2018-09-02T06:07:00.788Z,1664
2018-09-02T06:08:09.431Z,1652
2018-09-02T06:09:18.335Z,1644
2018-09-02T06:10:26.972Z,1640
2018-09-02T06:11:35.623Z,1644
2018-09-02T06:12:44.258Z,1664
2018-09-02T06:13:52.905Z,1696
2018-09-02T06:15:01.537Z,1712
2018-09-02T06:16:10.454Z,1732
2018-09-02T06:17:19.165Z,1752
2018-09-02T06:18:27.744Z,1764
2018-09-02T06:19:36.377Z,1772
2018-09-02T06:20:45.030Z,1784
2018-09-02T06:21:53.670Z,1788
2018-09-02T06:23:02.316Z,1804
2018-09-02T06:24:10.951Z,1824
2018-09-02T06:25:20.135Z,1844
2018-09-02T06:26:28.781Z,1856
2018-09-02T06:27:37.953Z,1852
2018-09-02T06:28:46.866Z,1876
2018-09-02T06:29:55.531Z,1900
2018-09-02T06:31:04.149Z,1920
2018-09-02T06:32:12.791Z,1940
2018-09-02T06:33:21.703Z,1920
2018-09-02T06:34:30.347Z,1944
2018-09-02T06:35:39.074Z,1960
2018-09-02T06:36:47.632Z,1976
2018-09-02T06:37:56.290Z,1972
2018-09-02T06:39:05.197Z,1980
2018-09-02T06:40:13.841Z,1980
2018-09-02T06:41:22.483Z,1968
2018-09-02T06:42:31.132Z,1984
2018-09-02T06:43:39.787Z,1996
2018-09-02T06:44:48.421Z,2012
2018-09-02T06:45:57.066Z,2024
2018-09-02T06:47:06.501Z,2048
2018-09-02T06:48:15.156Z,2096
2018-09-02T06:49:24.057Z,2156
2018-09-02T06:50:32.711Z,2220
2018-09-02T06:51:41.340Z,2264
2018-09-02T06:52:49.998Z,2296
2018-09-02T06:53:58.903Z,2352
2018-09-02T06:55:07.551Z,2392
2018-09-02T06:56:16.447Z,2428
2018-09-02T06:57:25.097Z,2420
2018-09-02T06:58:33.746Z,2384
2018-09-02T06:59:42.725Z,2300
2018-09-02T07:00:51.366Z,2204
2018-09-02T07:02:00.278Z,2120
2018-09-02T07:03:08.918Z,2080
2018-09-02T07:04:17.570Z,2072
2018-09-02T07:05:26.211Z,2096
2018-09-02T07:06:34.856Z,2104
2018-09-02T07:07:43.494Z,2120
2018-09-02T07:08:52.138Z,2156
2018-09-02T07:10:00.786Z,2184
2018-09-02T07:11:09.971Z,2176
2018-09-02T07:12:18.621Z,2168
2018-09-02T07:13:27.267Z,2176
2018-09-02T07:14:36.294Z,2168
2018-09-02T07:15:44.933Z,2152
2018-09-02T07:16:53.849Z,2136
2018-09-02T07:18:02.757Z,2128
2018-09-02T07:19:11.407Z,2128
2018-09-02T07:20:20.048Z,2132
2018-09-02T07:21:28.692Z,2136
2018-09-02T07:22:37.335Z,2136
2018-09-02T07:23:45.975Z,2148
2018-09-02T07:24:54.624Z,2156
2018-09-02T07:26:03.269Z,2156
2018-09-02T07:27:11.910Z,2168
2018-09-02T07:28:20.552Z,2168
2018-09-02T07:29:29.194Z,2184
2018-09-02T07:30:37.843Z,2188
2018-09-02T07:31:46.487Z,2200
2018-09-02T07:32:55.138Z,2196
2018-09-02T07:34:04.036Z,2196
2018-09-02T07:35:12.693Z,2204
2018-09-02T07:36:21.332Z,2196
2018-09-02T07:37:29.989Z,2200
2018-09-02T07:38:38.635Z,2204
2018-09-02T07:39:47.275Z,2212
2018-09-02T07:40:55.917Z,2220
2018-09-02T07:42:04.562Z,2228
2018-09-02T07:43:13.213Z,2228
2018-09-02T07:44:21.851Z,2236
2018-09-02T07:45:30.502Z,2244
2018-09-02T07:46:39.137Z,2244
2018-09-02T07:47:47.791Z,2252
2018-09-02T07:48:56.432Z,2256
2018-09-02T07:50:05.081Z,2252
2018-09-02T07:51:13.724Z,2260
2018-09-02T07:52:22.376Z,2272
2018-09-02T07:53:31.017Z,2260
2018-09-02T07:54:39.703Z,2268
2018-09-02T07:55:48.306Z,2272
2018-09-02T07:56:57.218Z,2276
2018-09-02T07:58:05.868Z,2280
2018-09-02T07:59:14.518Z,2292
2018-09-02T08:00:23.166Z,2280
2018-09-02T08:01:31.801Z,2276
2018-09-02T08:02:40.511Z,2272
2018-09-02T08:03:49.089Z,2276
2018-09-02T08:04:57.747Z,2280
2018-09-02T08:06:06.392Z,2276
2018-09-02T08:07:15.042Z,2284
2018-09-02T08:08:23.682Z,2280
2018-09-02T08:09:32.337Z,2280
2018-09-02T08:10:40.972Z,2276
2018-09-02T08:11:50.147Z,2300
2018-09-02T08:12:58.993Z,2308
2018-09-02T08:14:07.444Z,2304
2018-09-02T08:15:16.090Z,2308
2018-09-02T08:16:24.997Z,2316
2018-09-02T08:17:33.909Z,2320
2018-09-02T08:18:42.547Z,2328
2018-09-02T08:19:51.247Z,2328
2018-09-02T08:20:59.837Z,2328
2018-09-02T08:22:08.752Z,2324
2018-09-02T08:23:17.391Z,2328
2018-09-02T08:24:26.048Z,2336
2018-09-02T08:25:34.691Z,2340
2018-09-02T08:26:44.161Z,2352
2018-09-02T08:27:52.722Z,2356
2018-09-02T08:29:01.375Z,2356
2018-09-02T08:30:10.296Z,2364
2018-09-02T08:31:19.211Z,2380
2018-09-02T08:32:28.119Z,2372
2018-09-02T08:33:36.768Z,2372
2018-09-02T08:34:45.411Z,2380
2018-09-02T08:35:54.059Z,2392
2018-09-02T08:37:02.982Z,2392
2018-09-02T08:38:11.624Z,2400
2018-09-02T08:39:20.442Z,2428
2018-09-02T08:40:28.920Z,2416
2018-09-02T08:41:37.571Z,2424
2018-09-02T08:42:46.478Z,2428
2018-09-02T08:43:55.128Z,2428
2018-09-02T08:45:03.772Z,2440
2018-09-02T08:46:12.420Z,2460
2018-09-02T08:47:21.061Z,2472
2018-09-02T08:48:29.710Z,2468
2018-09-02T08:49:38.625Z,2476
2018-09-02T08:50:47.542Z,2476
2018-09-02T08:51:56.185Z,2480
2018-09-02T08:53:04.832Z,2484
2018-09-02T08:54:13.737Z,2488
2018-09-02T08:55:22.643Z,2488
2018-09-02T08:56:31.569Z,2504
2018-09-02T08:57:40.215Z,2508
2018-09-02T08:58:49.128Z,2516
2018-09-02T08:59:57.769Z,2532
2018-09-02T09:01:06.425Z,2552
2018-09-02T09:02:15.068Z,2552
2018-09-02T09:03:23.715Z,2556
2018-09-02T09:04:32.359Z,2560
2018-09-02T09:05:41.013Z,2576
2018-09-02T09:06:49.659Z,2576
2018-09-02T09:07:58.379Z,2576
2018-09-02T09:09:07.356Z,2576
2018-09-02T09:10:16.504Z,2572
2018-09-02T09:11:25.149Z,2568
2018-09-02T09:12:33.798Z,2564
2018-09-02T09:13:42.712Z,2556
2018-09-02T09:14:51.354Z,2560
2018-09-02T09:16:00.003Z,2564
2018-09-02T09:17:09.118Z,2572
2018-09-02T09:18:17.926Z,2576
2018-09-02T09:19:26.569Z,2584
2018-09-02T09:20:35.220Z,2576
2018-09-02T09:21:44.708Z,2564
2018-09-02T09:22:53.178Z,2564
2018-09-02T09:24:02.672Z,2552
2018-09-02T09:25:11.732Z,2548
2018-09-02T09:26:20.277Z,2564
2018-09-02T09:27:28.921Z,2556
2018-09-02T09:28:37.574Z,2560
2018-09-02T09:29:46.226Z,2548
2018-09-02T09:30:54.879Z,2548
2018-09-02T09:32:03.527Z,2544
2018-09-02T09:33:12.166Z,2548
2018-09-02T09:34:20.814Z,2528
2018-09-02T09:35:29.736Z,2532
2018-09-02T09:36:38.386Z,2524
2018-09-02T09:37:47.027Z,2536
2018-09-02T09:38:55.676Z,2532
2018-09-02T09:40:04.322Z,2540
2018-09-02T09:41:12.977Z,2528
2018-09-02T09:42:21.625Z,2528
2018-09-02T09:43:30.270Z,2528
2018-09-02T09:44:38.916Z,2512
2018-09-02T09:45:47.573Z,2536
2018-09-02T09:46:56.219Z,2536
2018-09-02T09:48:05.135Z,2540
2018-09-02T09:49:13.780Z,2536
2018-09-02T09:50:22.426Z,2548
2018-09-02T09:51:31.078Z,2564
2018-09-02T09:52:39.725Z,2568
2018-09-02T09:53:48.374Z,2572
2018-09-02T09:54:57.018Z,2592
2018-09-02T09:56:05.669Z,2608
2018-09-02T09:57:14.317Z,2624
2018-09-02T09:58:22.965Z,2676
2018-09-02T09:59:31.609Z,2712
2018-09-02T10:00:40.260Z,2744
2018-09-02T10:01:48.909Z,2708
2018-09-02T10:02:57.558Z,2684
2018-09-02T10:04:06.199Z,2652
2018-09-02T10:05:14.855Z,2636
2018-09-02T10:06:23.498Z,2628
2018-09-02T10:07:32.150Z,2628
2018-09-02T10:08:41.063Z,2624
2018-09-02T10:09:49.760Z,2616
2018-09-02T10:10:58.355Z,2612
2018-09-02T10:12:07.271Z,2584
2018-09-02T10:13:15.924Z,2608
2018-09-02T10:14:24.566Z,2604
2018-09-02T10:15:33.218Z,2624
2018-09-02T10:16:41.862Z,2616
2018-09-02T10:17:50.514Z,2636
2018-09-02T10:18:59.159Z,2644
2018-09-02T10:20:07.813Z,2660
2018-09-02T10:21:16.455Z,2676
2018-09-02T10:22:25.107Z,2680
2018-09-02T10:23:34.022Z,2688
2018-09-02T10:24:42.668Z,2680
2018-09-02T10:25:51.311Z,2660
2018-09-02T10:26:59.957Z,2680
2018-09-02T10:28:08.617Z,2712
2018-09-02T10:29:17.261Z,2704
2018-09-02T10:30:25.914Z,2728
2018-09-02T10:31:34.551Z,2744
2018-09-02T10:32:43.211Z,2792
2018-09-02T10:33:51.862Z,2376
2018-09-02T10:35:00.512Z,2884
2018-09-02T10:36:09.148Z,2996
2018-09-02T10:37:18.069Z,2128
2018-09-02T10:38:26.715Z,2176
2018-09-02T10:39:35.365Z,2476
2018-09-02T10:40:44.005Z,3056
2018-09-02T10:41:52.928Z,2988
2018-09-02T10:43:01.847Z,2384
2018-09-02T10:44:10.498Z,2872
2018-09-02T10:45:19.149Z,1892
2018-09-02T10:46:27.787Z,2224
2018-09-02T10:47:36.443Z,2820
2018-09-02T10:48:45.090Z,2816
2018-09-02T10:49:53.745Z,2800
2018-09-02T10:51:02.385Z,2816
2018-09-02T10:52:11.036Z,2820
2018-09-02T10:53:19.687Z,2844
2018-09-02T10:54:28.345Z,2868
2018-09-02T10:55:36.985Z,2856
2018-09-02T10:56:45.636Z,2844
2018-09-02T10:57:54.281Z,2840
2018-09-02T10:59:02.938Z,2832
2018-09-02T11:00:11.585Z,2844
2018-09-02T11:01:20.228Z,2852
2018-09-02T11:02:29.138Z,2856
2018-09-02T11:03:38.058Z,2864
2018-09-02T11:04:46.982Z,2864
2018-09-02T11:05:55.888Z,2844
2018-09-02T11:07:04.540Z,2868
2018-09-02T11:08:13.179Z,2864
2018-09-02T11:09:22.118Z,2868
2018-09-02T11:10:30.764Z,2848
2018-09-02T11:11:39.683Z,2856
2018-09-02T11:12:48.324Z,2892
2018-09-02T11:13:57.180Z,2864
2018-09-02T11:15:05.903Z,2896
2018-09-02T11:16:14.838Z,2904
2018-09-02T11:17:23.464Z,2904
2018-09-02T11:18:32.113Z,1764
2018-09-02T11:19:40.767Z,2556
2018-09-02T11:20:49.422Z,2944
2018-09-02T11:21:58.072Z,2932
2018-09-02T11:23:06.712Z,2348
2018-09-02T11:24:15.916Z,2900
2018-09-02T11:25:24.545Z,2924
2018-09-02T11:26:33.466Z,2904
2018-09-02T11:27:42.112Z,2900
2018-09-02T11:28:50.769Z,2900
2018-09-02T11:29:59.408Z,2896
2018-09-02T11:31:08.063Z,2896
2018-09-02T11:32:16.707Z,2896
2018-09-02T11:33:25.618Z,2888
2018-09-02T11:34:34.530Z,2888
2018-09-02T11:35:43.445Z,2940
2018-09-02T11:36:52.092Z,2964
2018-09-02T11:38:01.002Z,2956
2018-09-02T11:39:09.649Z,2932
2018-09-02T11:40:18.295Z,2916
2018-09-02T11:41:26.950Z,2912
2018-09-02T11:42:35.594Z,2904
2018-09-02T11:43:44.507Z,2908
2018-09-02T11:44:53.160Z,2912
2018-09-02T11:46:02.073Z,2920
2018-09-02T11:47:10.724Z,2924
2018-09-02T11:48:19.640Z,2912
2018-09-02T11:49:28.285Z,2904
2018-09-02T11:50:36.938Z,2912
2018-09-02T11:51:45.587Z,2908
2018-09-02T11:52:54.773Z,2916
2018-09-02T11:54:03.685Z,2892
2018-09-02T11:55:12.878Z,2880
2018-09-02T11:56:21.528Z,2888
2018-09-02T11:57:30.184Z,2884
2018-09-02T11:58:39.115Z,2884
2018-09-02T11:59:48.022Z,2884
2018-09-02T12:00:56.934Z,2884
2018-09-02T12:02:05.583Z,2884
2018-09-02T12:03:14.239Z,2868
2018-09-02T12:04:23.417Z,2868
2018-09-02T12:05:32.067Z,2876
2018-09-02T12:06:40.715Z,2888
2018-09-02T12:07:49.371Z,2884
2018-09-02T12:08:58.016Z,2880
2018-09-02T12:10:06.668Z,2868
2018-09-02T12:11:15.323Z,2872
2018-09-02T12:12:23.978Z,2876
2018-09-02T12:13:32.624Z,2872
2018-09-02T12:14:41.277Z,2868
2018-09-02T12:15:50.452Z,2864
2018-09-02T12:16:59.097Z,2868
2018-09-02T12:18:07.750Z,2860
2018-09-02T12:19:16.400Z,2852
2018-09-02T12:20:25.049Z,2860
2018-09-02T12:21:33.959Z,2840
2018-09-02T12:22:42.879Z,2872
2018-09-02T12:23:51.527Z,2852
2018-09-02T12:25:00.180Z,2852
2018-09-02T12:26:08.820Z,2848
2018-09-02T12:27:17.741Z,2848
2018-09-02T12:28:26.395Z,2848
2018-09-02T12:29:35.041Z,2844
2018-09-02T12:30:43.680Z,2840
2018-09-02T12:31:52.345Z,2844
2018-09-02T12:33:00.997Z,2852
2018-09-02T12:34:09.650Z,2884
2018-09-02T12:35:18.300Z,2900
2018-09-02T12:36:27.203Z,2880
2018-09-02T12:37:35.857Z,2864
2018-09-02T12:38:44.503Z,2832
2018-09-02T12:39:53.162Z,2888
2018-09-02T12:41:01.802Z,2880
2018-09-02T12:42:10.526Z,2860
2018-09-02T12:43:19.104Z,2876
2018-09-02T12:44:27.760Z,2880
2018-09-02T12:45:36.661Z,2888
2018-09-02T12:46:45.313Z,2884
2018-09-02T12:47:54.340Z,2868
2018-09-02T12:49:02.885Z,2872
2018-09-02T12:50:11.538Z,2880
2018-09-02T12:51:20.185Z,2872
2018-09-02T12:52:29.094Z,2868
2018-09-02T12:53:37.744Z,2868
2018-09-02T12:54:46.677Z,2884
2018-09-02T12:55:55.326Z,2884
2018-09-02T12:57:03.982Z,2880
2018-09-02T12:58:12.620Z,2884
2018-09-02T12:59:21.282Z,2892
2018-09-02T13:00:29.924Z,2904
2018-09-02T13:01:38.585Z,2900
2018-09-02T13:02:47.234Z,2896
2018-09-02T13:03:55.894Z,2900
2018-09-02T13:05:04.541Z,2884
2018-09-02T13:06:13.193Z,2888
2018-09-02T13:07:21.834Z,2900
2018-09-02T13:08:30.485Z,2900
2018-09-02T13:09:39.143Z,2900
2018-09-02T13:10:47.792Z,2892
2018-09-02T13:11:56.445Z,2904
2018-09-02T13:13:05.086Z,2896
2018-09-02T13:14:13.741Z,2888
2018-09-02T13:15:22.453Z,2880
2018-09-02T13:16:31.044Z,2876
2018-09-02T13:17:39.684Z,2840
2018-09-02T13:18:48.343Z,2828
2018-09-02T13:19:56.986Z,2808
2018-09-02T13:21:05.634Z,2804
2018-09-02T13:22:14.301Z,2776
2018-09-02T13:23:22.953Z,2760
2018-09-02T13:24:31.660Z,2736
2018-09-02T13:25:40.240Z,2720
2018-09-02T13:26:48.891Z,2712
2018-09-02T13:27:57.549Z,2704
2018-09-02T13:29:06.462Z,2684
2018-09-02T13:30:15.116Z,2664
2018-09-02T13:31:23.754Z,2644
2018-09-02T13:32:32.410Z,2648
2018-09-02T13:33:41.419Z,2636
2018-09-02T13:34:50.294Z,2620
2018-09-02T13:35:58.932Z,2592
2018-09-02T13:37:07.586Z,2568
2018-09-02T13:38:16.542Z,2544
2018-09-02T13:39:25.155Z,2520
2018-09-02T13:40:33.801Z,2508
2018-09-02T13:41:42.453Z,2492
2018-09-02T13:42:51.101Z,2496
2018-09-02T13:43:59.759Z,2472
2018-09-02T13:45:08.406Z,2452
2018-09-02T13:46:17.051Z,2440
2018-09-02T13:47:25.698Z,2416
2018-09-02T13:48:34.881Z,2400
2018-09-02T13:49:43.413Z,2376
2018-09-02T13:50:52.057Z,2364
2018-09-02T13:52:00.716Z,2352
2018-09-02T13:53:09.355Z,2348
2018-09-02T13:54:18.594Z,2324
2018-09-02T13:55:27.480Z,2308
2018-09-02T13:56:36.136Z,2288
2018-09-02T13:57:44.782Z,2272
2018-09-02T13:58:53.703Z,2256
2018-09-02T14:00:02.350Z,2252
2018-09-02T14:01:11.040Z,2248
2018-09-02T14:02:20.015Z,2240
2018-09-02T14:03:28.671Z,2236
2018-09-02T14:04:37.586Z,2228
2018-09-02T14:05:46.240Z,2228
2018-09-02T14:06:54.891Z,2208
2018-09-02T14:08:03.576Z,2208
2018-09-02T14:09:12.189Z,2204
2018-09-02T14:10:20.842Z,2196
2018-09-02T14:11:29.494Z,2184
2018-09-02T14:12:38.141Z,2172
2018-09-02T14:13:47.330Z,2156
2018-09-02T14:14:55.978Z,2140
2018-09-02T14:16:04.638Z,2132
2018-09-02T14:17:13.283Z,2120
2018-09-02T14:18:22.202Z,2108
2018-09-02T14:19:30.850Z,2080
2018-09-02T14:20:39.505Z,2068
2018-09-02T14:21:48.152Z,2072
2018-09-02T14:22:56.801Z,2056
2018-09-02T14:24:05.451Z,2036
2018-09-02T14:25:14.099Z,2028
2018-09-02T14:26:22.757Z,2012
2018-09-02T14:27:31.667Z,2000
2018-09-02T14:28:40.318Z,1980
2018-09-02T14:29:48.963Z,1972
2018-09-02T14:30:57.616Z,1960
2018-09-02T14:32:06.265Z,1960
2018-09-02T14:33:14.917Z,1960
2018-09-02T14:34:23.561Z,1944
2018-09-02T14:35:32.215Z,1932
2018-09-02T14:36:40.863Z,1924
2018-09-02T14:37:49.514Z,1920
2018-09-02T14:38:58.160Z,1900
2018-09-02T14:40:06.816Z,1888
2018-09-02T14:41:15.729Z,1884
2018-09-02T14:42:24.384Z,1892
2018-09-02T14:43:33.037Z,1880
2018-09-02T14:44:41.683Z,1864
2018-09-02T14:45:50.335Z,1856
2018-09-02T14:46:58.990Z,1848
2018-09-02T14:48:07.911Z,1840
2018-09-02T14:49:16.829Z,1840
2018-09-02T14:50:25.479Z,1828
2018-09-02T14:51:34.129Z,1820
2018-09-02T14:52:43.044Z,1820
2018-09-02T14:53:51.689Z,1816
2018-09-02T14:55:00.347Z,1812
2018-09-02T14:56:08.986Z,1820
2018-09-02T14:57:17.639Z,1828
2018-09-02T14:58:26.286Z,1824
2018-09-02T14:59:34.940Z,1816
2018-09-02T15:00:43.856Z,1812
2018-09-02T15:01:52.764Z,1828
2018-09-02T15:03:01.416Z,1844
2018-09-02T15:04:10.064Z,1860
2018-09-02T15:05:18.709Z,1864
2018-09-02T15:06:27.355Z,1868
2018-09-02T15:07:36.277Z,1872
2018-09-02T15:08:45.186Z,1896
2018-09-02T15:09:54.101Z,1940
2018-09-02T15:11:02.748Z,1980
2018-09-02T15:12:11.669Z,1988
2018-09-02T15:13:20.317Z,1988
2018-09-02T15:14:28.973Z,2004
2018-09-02T15:15:37.616Z,1992
2018-09-02T15:16:46.266Z,1996
2018-09-02T15:17:55.183Z,2056
2018-09-02T15:19:04.358Z,2108
2018-09-02T15:20:13.009Z,2140
2018-09-02T15:21:22.355Z,2140
2018-09-02T15:22:30.839Z,2156
2018-09-02T15:23:39.489Z,2180
2018-09-02T15:24:48.144Z,2204
2018-09-02T15:25:56.792Z,2316
2018-09-02T15:27:05.490Z,2492
2018-09-02T15:28:14.087Z,2604
2018-09-02T15:29:22.740Z,2720
2018-09-02T15:30:31.388Z,2820
2018-09-02T15:31:40.041Z,2904
2018-09-02T15:32:48.689Z,2976
2018-09-02T15:33:57.345Z,2992
2018-09-02T15:35:06.260Z,3064
2018-09-02T15:36:15.180Z,3224
2018-09-02T15:37:23.827Z,3384
2018-09-02T15:38:32.475Z,3444
2018-09-02T15:39:41.132Z,3476
2018-09-02T15:40:49.781Z,3452
2018-09-02T15:41:58.433Z,3384
2018-09-02T15:43:07.342Z,3400
2018-09-02T15:44:16.328Z,3456